Ogallala, NE (69153)

11:06 AM MDT on July 29, 2015 (GMT -0600)
KNEOGALL1 | | Change Station
CLOSE
Current Station
Personal Weather Station
Location: Ogallala, NE
Elevation: 3243 ft
Nearby Weather Stations

Elev 3243 ft 41.13 °N, 101.71 °W | Updated 1 minute ago

Clear
Clear
75.8 °F
Feels Like 78 °F
N
7.0
Wind Variable Wind from South

Today
High -- | Low -- °F
--% Chance of Precip.
Yesterday
High -- | Low -- °F
Precip. -- in
5:39 AM 8:06 PM
Waxing Gibbous, 96% visible
Pressure 30.30 in
Visibility 10.0 miles
Clouds Clear
Heat Index 78 °F
Dew Point 50 °F
Humidity 40%
Rainfall 0.00 in
Snow Depth Not available.
UV 9 out of 12
Pollen 6.40 out of 12
Air Quality Not available.
Flu Activity Not available.
METAR KOGA 291655Z AUTO 15010G16KT 10SM CLR 25/09 A3030 RMK AO2 T02510090

More Conditions Fewer Conditions

Pressure 30.30 in
Visibility 10.0 miles
Clouds Clear
Heat Index 78 °F
Dew Point 50 °F
Humidity 40%
Rainfall 0.00 in
Snow Depth Not available.
UV 9 out of 12
Pollen 6.40 out of 12
Air Quality Not available.
Flu Activity Not available.
METAR KOGA 291655Z AUTO 15010G16KT 10SM CLR 25/09 A3030 RMK AO2 T02510090

More Conditions Fewer Conditions

10-Day Weather Forecast

×

Almanac

Astronomy

Jul. 29, 2015 Rise Set
Actual Time
Civil Twilight
Nautical Twilight
Astronomical Twilight
Moon
Length of Visible Light
Length of Day
Tomorrow will be .
, % of the Moon is Illuminated

Today's Extremes

State Highs State Lows

Community

WunderPhotos

Upload Photos

1,842,130 photos uploaded!

WunderBlogs® & News

Nearby

Air Quality

  Air Quality AQ Index Pollutant
Not available.

Snow Depth

Station Depth Elevation

Earthquake Activity

City Distance Mag. Time & Date
Minimum magnitude displayed is 2.5.

Coastal Water Temperatures

Place Temperature

Stations

Nearby Weather Stations

Station Location Temp. Windchill Dew Point Humidity Wind Precip. Elev Updated Type